createdAt,value
2023-05-04T00:00:26.572Z,11.37
2023-05-04T00:03:32.599Z,11.31
2023-05-04T00:06:40.501Z,11.31
2023-05-04T00:09:46.707Z,11.37
2023-05-04T00:12:53.128Z,11.14
2023-05-04T00:15:59.306Z,10.80
2023-05-04T00:19:05.405Z,10.41
2023-05-04T00:22:13.271Z,10.52
2023-05-04T00:25:19.659Z,10.88
2023-05-04T00:28:25.956Z,10.97
2023-05-04T00:31:32.205Z,11.12
2023-05-04T00:34:38.255Z,11.05
2023-05-04T00:37:46.616Z,11.05
2023-05-04T00:40:52.535Z,10.81
2023-05-04T00:43:59.878Z,11.24
2023-05-04T00:47:06.331Z,11.00
2023-05-04T00:50:14.051Z,10.99
2023-05-04T00:53:21.757Z,11.00
2023-05-04T00:56:29.762Z,10.76
2023-05-04T00:59:36.001Z,10.87
2023-05-04T01:02:43.166Z,10.95
2023-05-04T01:05:56.370Z,10.64
2023-05-04T01:09:12.366Z,10.78
2023-05-04T01:12:26.041Z,10.87
2023-05-04T01:15:33.710Z,10.76
2023-05-04T01:18:40.236Z,10.71
2023-05-04T01:21:48.024Z,10.50
2023-05-04T01:24:54.693Z,10.70
2023-05-04T01:28:10.074Z,10.52
2023-05-04T01:31:22.399Z,10.52
2023-05-04T01:34:28.497Z,10.79
2023-05-04T01:37:36.419Z,10.49
2023-05-04T01:40:42.405Z,10.26
2023-05-04T01:43:48.975Z,10.54
2023-05-04T01:46:55.081Z,10.62
2023-05-04T01:50:01.516Z,10.51
2023-05-04T01:53:09.304Z,10.77
2023-05-04T01:56:15.559Z,10.80
2023-05-04T01:59:21.690Z,10.41
2023-05-04T02:02:28.126Z,10.35
2023-05-04T02:05:34.130Z,10.27
2023-05-04T02:08:41.572Z,10.60
2023-05-04T02:11:47.876Z,10.66
2023-05-04T02:14:54.221Z,10.80
2023-05-04T02:18:00.233Z,10.76
2023-05-04T02:21:06.708Z,10.89
2023-05-04T02:24:14.459Z,10.79
2023-05-04T02:27:20.590Z,10.70
2023-05-04T02:30:26.876Z,10.72
2023-05-04T02:33:33.141Z,10.68
2023-05-04T02:36:39.253Z,10.54
2023-05-04T02:39:47.047Z,10.58
2023-05-04T02:42:53.504Z,10.70
2023-05-04T02:45:59.566Z,10.37
2023-05-04T02:49:05.710Z,10.34
2023-05-04T02:52:11.805Z,10.45
2023-05-04T02:55:19.418Z,10.22
2023-05-04T02:58:25.805Z,10.40
2023-05-04T03:01:34.109Z,10.42
2023-05-04T03:04:41.134Z,10.31
2023-05-04T03:07:47.350Z,10.17
2023-05-04T03:10:54.609Z,10.00
2023-05-04T03:14:01.261Z,9.94
2023-05-04T03:17:08.046Z,10.25
2023-05-04T03:20:15.111Z,10.53
2023-05-04T03:23:21.418Z,10.43
2023-05-04T03:26:28.760Z,10.51
2023-05-04T03:29:34.927Z,10.50
2023-05-04T03:32:42.024Z,10.51
2023-05-04T03:35:48.220Z,10.62
2023-05-04T03:38:54.402Z,10.35
2023-05-04T03:42:02.687Z,10.28
2023-05-04T03:45:10.026Z,10.81
2023-05-04T03:48:16.330Z,10.66
2023-05-04T03:51:23.177Z,10.10
2023-05-04T03:54:29.614Z,10.11
2023-05-04T03:57:37.136Z,10.34
2023-05-04T04:00:43.658Z,10.59
2023-05-04T04:03:50.132Z,10.76
2023-05-04T04:06:56.182Z,10.45
2023-05-04T04:10:02.642Z,10.28
2023-05-04T04:13:10.727Z,10.37
2023-05-04T04:16:16.748Z,10.64
2023-05-04T04:19:22.926Z,10.66
2023-05-04T04:22:29.152Z,10.76
2023-05-04T04:25:35.352Z,10.73
2023-05-04T04:28:44.927Z,10.42
2023-05-04T04:31:51.364Z,9.92
2023-05-04T04:34:57.884Z,10.43
2023-05-04T04:38:04.082Z,10.30
2023-05-04T04:41:10.347Z,9.92
2023-05-04T04:44:18.152Z,10.06
2023-05-04T04:47:24.256Z,10.38
2023-05-04T04:50:30.315Z,10.63
2023-05-04T04:53:36.457Z,10.34
2023-05-04T04:56:45.026Z,10.52
2023-05-04T04:59:53.358Z,10.64
2023-05-04T05:02:59.170Z,10.81
2023-05-04T05:06:05.525Z,10.69
2023-05-04T05:09:11.638Z,10.80
2023-05-04T05:12:17.722Z,10.59
2023-05-04T05:15:25.363Z,10.98
2023-05-04T05:18:31.528Z,11.07
2023-05-04T05:21:37.698Z,11.47
2023-05-04T05:24:44.036Z,11.55
2023-05-04T05:27:50.259Z,11.58
2023-05-04T05:30:57.694Z,11.32
2023-05-04T05:34:03.754Z,11.51
2023-05-04T05:37:10.083Z,11.78
2023-05-04T05:40:16.312Z,11.60
2023-05-04T05:43:22.725Z,11.98
2023-05-04T05:46:30.476Z,11.99
2023-05-04T05:49:36.371Z,11.93
2023-05-04T05:52:42.830Z,11.95
2023-05-04T05:55:49.238Z,11.74
2023-05-04T05:58:55.968Z,12.03
2023-05-04T06:02:03.972Z,12.08
2023-05-04T06:05:11.749Z,11.96
2023-05-04T06:08:18.627Z,12.21
2023-05-04T06:11:24.931Z,12.31
2023-05-04T06:14:31.163Z,11.90
2023-05-04T06:17:38.549Z,12.04
2023-05-04T06:20:44.745Z,11.95
2023-05-04T06:23:51.057Z,12.55
2023-05-04T06:26:57.969Z,12.77
2023-05-04T06:30:04.538Z,12.64
2023-05-04T06:33:12.342Z,12.85
2023-05-04T06:36:18.377Z,12.56
2023-05-04T06:39:24.587Z,13.17
2023-05-04T06:42:31.686Z,12.69
2023-05-04T06:45:38.482Z,12.86
2023-05-04T06:48:45.789Z,12.61
2023-05-04T06:51:52.076Z,13.26
2023-05-04T06:55:00.147Z,13.31
2023-05-04T06:58:07.091Z,13.59
2023-05-04T07:01:13.217Z,13.14
2023-05-04T07:04:23.443Z,13.37
2023-05-04T07:07:29.513Z,13.36
2023-05-04T07:10:35.855Z,13.47
2023-05-04T07:13:42.337Z,13.66
2023-05-04T07:16:48.743Z,13.50
2023-05-04T07:19:56.272Z,13.56
2023-05-04T07:23:02.203Z,13.58
2023-05-04T07:26:09.251Z,13.68
2023-05-04T07:29:15.853Z,13.41
2023-05-04T07:32:22.454Z,13.51
2023-05-04T07:35:29.899Z,13.43
2023-05-04T07:38:36.419Z,13.59
2023-05-04T07:41:42.840Z,13.78
2023-05-04T07:44:49.141Z,14.07
2023-05-04T07:47:55.396Z,13.66
2023-05-04T07:51:02.861Z,14.02
2023-05-04T07:54:09.428Z,13.75
2023-05-04T07:57:15.450Z,13.42
2023-05-04T08:00:22.483Z,14.10
2023-05-04T08:03:30.650Z,13.72
2023-05-04T08:06:39.532Z,14.14
2023-05-04T08:09:45.902Z,14.10
2023-05-04T08:12:51.815Z,14.03
2023-05-04T08:16:01.379Z,14.50
2023-05-04T08:19:07.825Z,14.60
2023-05-04T08:22:15.255Z,15.23
2023-05-04T08:25:22.450Z,15.32
2023-05-04T08:28:28.863Z,14.82
2023-05-04T08:31:35.351Z,14.76
2023-05-04T08:34:41.442Z,14.62
2023-05-04T08:37:49.589Z,16.18
2023-05-04T08:40:56.060Z,17.00
2023-05-04T08:44:03.705Z,16.07
2023-05-04T08:47:09.934Z,16.76
2023-05-04T08:50:16.436Z,16.99
2023-05-04T08:53:24.657Z,16.95
2023-05-04T08:56:31.426Z,16.26
2023-05-04T08:59:38.792Z,17.09
2023-05-04T09:02:47.165Z,16.79
2023-05-04T09:05:54.251Z,16.60
2023-05-04T09:09:02.247Z,16.15
2023-05-04T09:12:08.707Z,15.55
2023-05-04T09:15:17.537Z,15.99
2023-05-04T09:18:24.301Z,17.38
2023-05-04T09:21:31.347Z,17.46
2023-05-04T09:24:38.891Z,17.26
2023-05-04T09:27:54.491Z,18.72
2023-05-04T09:31:02.670Z,18.56
2023-05-04T09:34:12.335Z,17.83
2023-05-04T09:37:20.899Z,16.58
2023-05-04T09:40:36.306Z,16.81
2023-05-04T09:43:44.048Z,16.83
2023-05-04T09:46:57.086Z,16.96
2023-05-04T09:50:18.283Z,17.30
2023-05-04T09:53:27.814Z,16.08
2023-05-04T09:56:43.137Z,16.88
2023-05-04T09:59:50.333Z,15.64
2023-05-04T10:02:57.129Z,15.31
2023-05-04T10:06:05.687Z,15.88
2023-05-04T10:09:12.852Z,16.42
2023-05-04T10:12:20.501Z,16.35
2023-05-04T10:15:27.472Z,16.15
2023-05-04T10:18:46.601Z,16.20
2023-05-04T10:22:04.746Z,15.98
2023-05-04T10:25:38.972Z,16.37
2023-05-04T10:28:59.588Z,16.32
2023-05-04T10:32:08.096Z,16.13
2023-05-04T10:35:14.882Z,16.46
2023-05-04T10:38:21.494Z,16.16
2023-05-04T10:41:27.913Z,16.04
2023-05-04T10:44:37.531Z,15.83
2023-05-04T10:47:44.042Z,17.25
2023-05-04T10:50:51.523Z,17.27
2023-05-04T10:53:57.923Z,18.97
2023-05-04T10:57:05.147Z,16.84
2023-05-04T11:00:14.693Z,17.14
2023-05-04T11:03:25.040Z,17.13
2023-05-04T11:06:31.452Z,16.62
2023-05-04T11:09:39.223Z,17.24
2023-05-04T11:12:45.772Z,17.54
2023-05-04T11:15:53.970Z,17.64
2023-05-04T11:19:09.690Z,17.22
2023-05-04T11:22:16.209Z,16.84
2023-05-04T11:25:28.864Z,17.37
2023-05-04T11:28:36.182Z,16.67
2023-05-04T11:31:44.893Z,17.19
2023-05-04T11:34:51.175Z,17.39
2023-05-04T11:37:57.825Z,16.86
2023-05-04T11:41:04.248Z,16.46
2023-05-04T11:44:10.810Z,16.03
2023-05-04T11:47:19.028Z,15.99
2023-05-04T11:50:26.929Z,16.47
2023-05-04T11:53:38.745Z,16.44
2023-05-04T11:56:44.953Z,15.87
2023-05-04T11:59:51.809Z,15.76
2023-05-04T12:03:00.808Z,16.50
2023-05-04T12:06:07.971Z,15.76
2023-05-04T12:09:14.419Z,15.59
2023-05-04T12:12:21.668Z,15.23
2023-05-04T12:15:32.457Z,15.92
2023-05-04T12:18:40.342Z,15.59
2023-05-04T12:21:54.030Z,15.41
2023-05-04T12:25:01.318Z,15.37
2023-05-04T12:28:07.710Z,15.27
2023-05-04T12:31:13.980Z,15.59
2023-05-04T12:34:21.481Z,15.57
2023-05-04T12:37:27.635Z,15.51
2023-05-04T12:40:33.911Z,15.64
2023-05-04T12:43:40.434Z,15.32
2023-05-04T12:46:46.542Z,15.65
2023-05-04T12:49:55.994Z,16.06
2023-05-04T12:53:04.198Z,16.09
2023-05-04T12:56:10.333Z,16.67
2023-05-04T12:59:16.531Z,16.45
2023-05-04T13:02:22.953Z,15.47
2023-05-04T13:05:31.017Z,15.28
2023-05-04T13:08:37.158Z,15.40
2023-05-04T13:11:43.760Z,15.45
2023-05-04T13:14:50.218Z,15.33
2023-05-04T13:17:56.516Z,15.18
2023-05-04T13:21:03.966Z,15.05
2023-05-04T13:24:11.446Z,15.07
2023-05-04T13:27:17.802Z,15.01
2023-05-04T13:30:24.181Z,14.81
2023-05-04T13:33:30.973Z,15.03
2023-05-04T13:36:38.394Z,15.04
2023-05-04T13:39:44.415Z,15.32
2023-05-04T13:42:50.197Z,15.24
2023-05-04T13:45:57.422Z,15.37
2023-05-04T13:49:03.421Z,15.68
2023-05-04T13:52:11.030Z,15.98
2023-05-04T13:55:18.984Z,15.72
2023-05-04T13:58:25.521Z,16.68
2023-05-04T14:01:32.092Z,16.84
2023-05-04T14:04:39.734Z,17.57
2023-05-04T14:07:48.264Z,16.77
2023-05-04T14:10:54.314Z,16.13
2023-05-04T14:14:00.464Z,15.99
2023-05-04T14:17:06.756Z,15.98
2023-05-04T14:20:14.048Z,15.84
2023-05-04T14:23:21.568Z,15.69
2023-05-04T14:26:27.922Z,15.87
2023-05-04T14:29:34.522Z,15.58
2023-05-04T14:32:41.636Z,15.85
2023-05-04T14:35:48.372Z,15.87
2023-05-04T14:38:56.611Z,15.90
2023-05-04T14:42:03.565Z,15.91
2023-05-04T14:45:11.597Z,15.60
2023-05-04T14:48:18.089Z,15.27
2023-05-04T14:51:26.349Z,15.59
2023-05-04T14:54:33.937Z,15.48
2023-05-04T14:57:40.073Z,15.35
2023-05-04T15:00:46.505Z,15.50
2023-05-04T15:03:52.848Z,15.32
2023-05-04T15:06:59.001Z,15.34
2023-05-04T15:10:08.489Z,14.93
2023-05-04T15:13:16.050Z,15.10
2023-05-04T15:16:22.787Z,15.26
2023-05-04T15:19:29.302Z,15.09
2023-05-04T15:22:35.421Z,15.11
2023-05-04T15:25:43.157Z,14.78
2023-05-04T15:28:48.969Z,14.96
2023-05-04T15:31:56.483Z,14.68
2023-05-04T15:35:05.839Z,14.73
2023-05-04T15:38:12.755Z,14.62
2023-05-04T15:41:20.167Z,14.72
2023-05-04T15:44:27.821Z,14.75
2023-05-04T15:47:34.141Z,14.71
2023-05-04T15:50:40.153Z,14.59
2023-05-04T15:53:46.126Z,14.43
2023-05-04T15:56:53.753Z,14.38
2023-05-04T16:00:02.546Z,14.34
2023-05-04T16:03:08.837Z,14.26
2023-05-04T16:06:15.758Z,14.18
2023-05-04T16:09:21.968Z,14.46
2023-05-04T16:12:29.399Z,14.60
2023-05-04T16:15:37.055Z,14.04
2023-05-04T16:18:43.565Z,14.25
2023-05-04T16:21:49.779Z,14.12
2023-05-04T16:24:56.293Z,13.92
2023-05-04T16:28:03.890Z,14.06
2023-05-04T16:31:11.954Z,14.17
2023-05-04T16:34:18.399Z,13.96
2023-05-04T16:37:24.511Z,13.86
2023-05-04T16:40:32.695Z,13.87
2023-05-04T16:43:42.349Z,13.78
2023-05-04T16:46:51.168Z,13.77
2023-05-04T16:49:57.452Z,13.79
2023-05-04T16:53:03.962Z,13.76
2023-05-04T16:56:10.205Z,13.63
2023-05-04T16:59:17.764Z,13.62
2023-05-04T17:02:23.747Z,13.54
2023-05-04T17:05:30.114Z,13.43
2023-05-04T17:08:36.160Z,13.29
2023-05-04T17:11:42.769Z,13.26
2023-05-04T17:14:50.093Z,13.34
2023-05-04T17:17:56.854Z,13.44
2023-05-04T17:21:03.201Z,13.51
2023-05-04T17:24:09.446Z,13.51
2023-05-04T17:27:15.551Z,13.28
2023-05-04T17:30:23.250Z,13.41
2023-05-04T17:33:29.396Z,13.13
2023-05-04T17:36:35.696Z,13.28
2023-05-04T17:39:41.595Z,13.33
2023-05-04T17:42:47.650Z,13.28
2023-05-04T17:45:56.043Z,12.97
2023-05-04T17:49:02.578Z,12.72
2023-05-04T17:52:08.967Z,12.86
2023-05-04T17:55:15.343Z,12.77
2023-05-04T17:58:21.798Z,12.46
2023-05-04T18:01:29.452Z,12.54
2023-05-04T18:04:37.645Z,12.55
2023-05-04T18:07:43.841Z,12.32
2023-05-04T18:10:50.589Z,12.38
2023-05-04T18:13:57.154Z,12.57
2023-05-04T18:17:04.684Z,12.60
2023-05-04T18:20:13.272Z,12.63
2023-05-04T18:23:19.425Z,12.32
2023-05-04T18:26:25.525Z,12.25
2023-05-04T18:29:32.173Z,12.28
2023-05-04T18:32:39.716Z,12.05
2023-05-04T18:35:45.984Z,12.42
2023-05-04T18:38:53.376Z,12.33
2023-05-04T18:42:01.015Z,12.37
2023-05-04T18:45:08.444Z,12.60
2023-05-04T18:48:16.186Z,12.53
2023-05-04T18:51:22.092Z,12.39
2023-05-04T18:54:31.116Z,12.32
2023-05-04T18:57:37.619Z,12.60
2023-05-04T19:00:46.447Z,12.40
2023-05-04T19:03:54.379Z,12.48
2023-05-04T19:07:01.832Z,12.71
2023-05-04T19:10:09.878Z,12.49
2023-05-04T19:13:16.183Z,12.54
2023-05-04T19:16:22.806Z,12.53
2023-05-04T19:19:30.415Z,12.47
2023-05-04T19:22:36.788Z,12.63
2023-05-04T19:25:43.285Z,12.15
2023-05-04T19:28:49.657Z,12.51
2023-05-04T19:31:56.063Z,12.30
2023-05-04T19:35:03.968Z,12.57
2023-05-04T19:38:10.146Z,12.36
2023-05-04T19:41:16.476Z,12.42
2023-05-04T19:44:22.966Z,12.28
2023-05-04T19:47:30.030Z,12.49
2023-05-04T19:50:37.699Z,12.49
2023-05-04T19:53:44.229Z,12.51
2023-05-04T19:56:50.640Z,12.68
2023-05-04T19:59:57.631Z,12.60
2023-05-04T20:03:03.655Z,12.55
2023-05-04T20:06:11.159Z,12.44
2023-05-04T20:09:17.310Z,12.28
2023-05-04T20:12:23.240Z,12.22
2023-05-04T20:15:29.373Z,11.99
2023-05-04T20:18:35.864Z,12.35
2023-05-04T20:21:43.657Z,12.41
2023-05-04T20:24:50.536Z,12.42
2023-05-04T20:27:56.457Z,12.32
2023-05-04T20:31:02.723Z,12.41
2023-05-04T20:34:08.728Z,12.35
2023-05-04T20:37:16.326Z,12.34
2023-05-04T20:40:23.066Z,12.36
2023-05-04T20:43:29.183Z,12.41
2023-05-04T20:46:35.676Z,12.21
2023-05-04T20:49:41.568Z,12.27
2023-05-04T20:52:40.323Z,12.28
2023-05-04T20:55:46.606Z,12.22
2023-05-04T20:58:53.610Z,12.35
2023-05-04T21:01:59.698Z,12.30
2023-05-04T21:05:07.124Z,12.38
2023-05-04T21:08:14.763Z,12.13
2023-05-04T21:11:21.225Z,11.89
2023-05-04T21:14:27.653Z,12.01
2023-05-04T21:17:33.568Z,12.07
2023-05-04T21:20:39.434Z,12.11
2023-05-04T21:23:47.501Z,12.08
2023-05-04T21:26:53.725Z,12.02
2023-05-04T21:29:59.844Z,11.98
2023-05-04T21:33:05.978Z,12.22
2023-05-04T21:36:13.826Z,12.20
2023-05-04T21:39:22.129Z,12.09
2023-05-04T21:42:27.883Z,12.04
2023-05-04T21:45:34.406Z,12.09
2023-05-04T21:48:41.092Z,12.13
2023-05-04T21:51:47.320Z,11.58
2023-05-04T21:54:55.339Z,11.93
2023-05-04T21:58:02.661Z,11.88
2023-05-04T22:01:09.581Z,11.95
2023-05-04T22:04:16.453Z,11.84
2023-05-04T22:07:23.040Z,11.70
2023-05-04T22:10:31.085Z,11.67
2023-05-04T22:13:37.522Z,11.76
2023-05-04T22:16:43.695Z,11.91
2023-05-04T22:19:49.841Z,12.03
2023-05-04T22:22:56.188Z,12.01
2023-05-04T22:26:03.460Z,12.02
2023-05-04T22:29:09.534Z,11.97
2023-05-04T22:32:15.297Z,11.85
2023-05-04T22:35:22.412Z,11.88
2023-05-04T22:38:28.714Z,11.97
2023-05-04T22:41:36.184Z,11.84
2023-05-04T22:44:42.045Z,11.87
2023-05-04T22:47:48.342Z,11.77
2023-05-04T22:50:55.103Z,11.90
2023-05-04T22:54:01.495Z,11.98
2023-05-04T22:57:09.733Z,12.00
2023-05-04T23:00:16.846Z,11.99
2023-05-04T23:03:23.755Z,11.92
2023-05-04T23:06:30.150Z,11.97
2023-05-04T23:09:42.911Z,11.84
2023-05-04T23:12:50.418Z,11.92
2023-05-04T23:15:56.728Z,11.78
2023-05-04T23:19:02.871Z,11.75
2023-05-04T23:22:09.034Z,11.64
2023-05-04T23:25:15.342Z,11.85
2023-05-04T23:28:22.752Z,11.93
2023-05-04T23:31:28.854Z,12.01
2023-05-04T23:34:35.131Z,11.66
2023-05-04T23:37:41.329Z,11.54
2023-05-04T23:40:47.529Z,11.71
2023-05-04T23:43:54.824Z,11.90
2023-05-04T23:47:01.228Z,12.01
2023-05-04T23:50:08.918Z,11.96
2023-05-04T23:53:15.268Z,12.01
2023-05-04T23:56:21.675Z,12.06
2023-05-04T23:59:29.349Z,11.73
